createdAt,value
2022-12-06T00:01:44.288Z,3.58
2022-12-06T00:04:15.559Z,3.54
2022-12-06T00:06:48.747Z,3.53
2022-12-06T00:09:30.003Z,3.53
2022-12-06T00:11:58.322Z,3.51
2022-12-06T00:14:27.073Z,3.52
2022-12-06T00:16:56.974Z,3.51
2022-12-06T00:19:24.705Z,3.47
2022-12-06T00:21:51.744Z,3.48
2022-12-06T00:24:23.754Z,3.47
2022-12-06T00:26:51.074Z,3.53
2022-12-06T00:29:23.061Z,3.49
2022-12-06T00:31:51.586Z,3.50
2022-12-06T00:34:18.632Z,3.51
2022-12-06T00:36:47.327Z,3.51
2022-12-06T00:39:18.390Z,3.52
2022-12-06T00:41:46.279Z,3.53
2022-12-06T00:44:13.405Z,3.51
2022-12-06T00:46:40.459Z,3.50
2022-12-06T00:49:09.665Z,3.53
2022-12-06T00:51:38.526Z,3.57
2022-12-06T00:54:07.862Z,3.56
2022-12-06T00:56:37.715Z,3.54
2022-12-06T00:59:06.813Z,3.57
2022-12-06T01:01:36.198Z,3.59
2022-12-06T01:04:07.195Z,3.59
2022-12-06T01:06:37.568Z,3.56
2022-12-06T01:09:09.463Z,3.59
2022-12-06T01:11:36.853Z,3.60
2022-12-06T01:14:03.897Z,3.59
2022-12-06T01:16:32.546Z,3.57
2022-12-06T01:19:05.428Z,3.56
2022-12-06T01:21:32.282Z,3.60
2022-12-06T01:23:59.392Z,3.60
2022-12-06T01:26:33.902Z,3.59
2022-12-06T01:29:02.346Z,3.58
2022-12-06T01:31:37.272Z,3.56
2022-12-06T01:34:09.882Z,3.53
2022-12-06T01:36:36.560Z,3.48
2022-12-06T01:39:06.922Z,3.45
2022-12-06T01:41:34.507Z,3.48
2022-12-06T01:44:01.229Z,3.46
2022-12-06T01:46:45.386Z,3.47
2022-12-06T01:49:11.956Z,3.47
2022-12-06T01:51:51.475Z,3.42
2022-12-06T01:54:23.331Z,3.42
2022-12-06T01:56:55.780Z,3.40
2022-12-06T01:59:25.775Z,3.37
2022-12-06T02:01:54.203Z,3.36
2022-12-06T02:04:23.183Z,3.29
2022-12-06T02:06:54.537Z,3.32
2022-12-06T02:09:24.163Z,3.32
2022-12-06T02:11:50.731Z,3.31
2022-12-06T02:14:32.466Z,3.29
2022-12-06T02:17:56.459Z,3.29
2022-12-06T02:20:49.954Z,3.31
2022-12-06T02:24:02.034Z,3.30
2022-12-06T02:26:48.966Z,3.31
2022-12-06T02:29:59.856Z,3.32
2022-12-06T02:32:55.290Z,3.32
2022-12-06T02:35:38.890Z,3.34
2022-12-06T02:38:19.089Z,3.33
2022-12-06T02:40:59.194Z,3.37
2022-12-06T02:43:40.268Z,3.33
2022-12-06T02:46:11.156Z,3.36
2022-12-06T02:48:41.695Z,3.34
2022-12-06T02:51:17.080Z,3.35
2022-12-06T02:53:53.062Z,3.34
2022-12-06T02:56:20.570Z,3.36
2022-12-06T02:58:47.746Z,3.37
2022-12-06T03:01:20.416Z,3.37
2022-12-06T03:03:56.093Z,3.38
2022-12-06T03:06:46.594Z,3.38
2022-12-06T03:09:50.748Z,3.39
2022-12-06T03:12:39.587Z,3.39
2022-12-06T03:15:26.701Z,3.39
2022-12-06T03:18:22.258Z,3.38
2022-12-06T03:21:00.821Z,3.44
2022-12-06T03:23:40.970Z,3.45
2022-12-06T03:26:16.788Z,3.45
2022-12-06T03:28:50.486Z,3.42
2022-12-06T03:31:17.572Z,3.44
2022-12-06T03:34:13.865Z,3.46
2022-12-06T03:36:46.780Z,3.45
2022-12-06T03:39:28.402Z,3.46
2022-12-06T03:41:59.893Z,3.46
2022-12-06T03:44:27.331Z,3.45
2022-12-06T03:47:16.050Z,3.44
2022-12-06T03:49:58.891Z,3.44
2022-12-06T03:52:29.515Z,3.47
2022-12-06T03:54:56.450Z,3.46
2022-12-06T03:57:23.550Z,3.43
2022-12-06T03:59:52.863Z,3.45
2022-12-06T04:02:19.591Z,3.46
2022-12-06T04:04:46.735Z,3.47
2022-12-06T04:07:13.627Z,3.47
2022-12-06T04:10:03.375Z,3.49
2022-12-06T04:12:54.869Z,3.47
2022-12-06T04:15:30.714Z,3.46
2022-12-06T04:18:10.813Z,3.46
2022-12-06T04:21:16.284Z,3.44
2022-12-06T04:23:51.396Z,3.45
2022-12-06T04:26:22.672Z,3.44
2022-12-06T04:29:11.245Z,3.43
2022-12-06T04:31:59.147Z,3.42
2022-12-06T04:34:44.991Z,3.42
2022-12-06T04:37:30.718Z,3.40
2022-12-06T04:39:57.555Z,3.40
2022-12-06T04:42:42.797Z,3.43
2022-12-06T04:45:10.201Z,3.41
2022-12-06T04:47:36.972Z,3.43
2022-12-06T04:50:04.128Z,3.43
2022-12-06T04:52:35.502Z,3.45
2022-12-06T04:55:04.657Z,3.45
2022-12-06T04:57:31.524Z,3.44
2022-12-06T04:59:58.536Z,3.41
2022-12-06T05:02:25.535Z,3.44
2022-12-06T05:04:52.244Z,3.39
2022-12-06T05:07:19.041Z,3.39
2022-12-06T05:09:48.948Z,3.41
2022-12-06T05:12:15.711Z,3.43
2022-12-06T05:14:42.396Z,3.42
2022-12-06T05:17:09.187Z,3.43
2022-12-06T05:19:35.824Z,3.42
2022-12-06T05:22:02.586Z,3.42
2022-12-06T05:24:30.548Z,3.39
2022-12-06T05:26:57.201Z,3.42
2022-12-06T05:29:24.030Z,3.39
2022-12-06T05:31:50.861Z,3.38
2022-12-06T05:34:17.679Z,3.37
2022-12-06T05:36:52.549Z,3.37
2022-12-06T05:39:19.170Z,3.36
2022-12-06T05:41:46.126Z,3.37
2022-12-06T05:44:12.716Z,3.36
2022-12-06T05:46:39.412Z,3.36
2022-12-06T05:49:06.066Z,3.36
2022-12-06T05:51:33.308Z,3.39
2022-12-06T06:42:29.660Z,3.42
2022-12-06T06:44:56.375Z,3.39
2022-12-06T08:09:13.754Z,3.25
2022-12-06T09:24:56.211Z,3.07
2022-12-06T09:27:22.919Z,3.05
2022-12-06T09:29:53.006Z,3.01
2022-12-06T09:32:19.689Z,3.00
2022-12-06T09:34:46.615Z,2.96
2022-12-06T09:37:14.356Z,2.99
2022-12-06T09:39:50.828Z,3.00
2022-12-06T09:42:59.667Z,3.01
2022-12-06T09:45:57.934Z,3.00
2022-12-06T09:48:49.625Z,2.95
2022-12-06T09:52:24.824Z,2.96
2022-12-06T09:55:32.623Z,2.91
2022-12-06T09:58:17.777Z,2.90
2022-12-06T11:10:35.717Z,2.86
2022-12-06T11:58:37.289Z,2.74
2022-12-06T12:01:14.425Z,2.76
2022-12-06T12:03:47.400Z,2.81
2022-12-06T12:06:29.164Z,2.77
2022-12-06T12:09:02.958Z,2.74
2022-12-06T12:11:39.736Z,2.69
2022-12-06T12:14:26.858Z,2.65
2022-12-06T12:17:02.053Z,2.66
2022-12-06T12:19:52.105Z,2.61
2022-12-06T12:22:30.643Z,2.62
2022-12-06T12:28:01.377Z,2.56
2022-12-06T12:30:42.334Z,2.49
2022-12-06T12:33:19.786Z,2.45
2022-12-06T12:36:08.485Z,2.44
2022-12-06T12:38:48.956Z,2.44
2022-12-06T12:41:42.198Z,2.48
2022-12-06T12:44:39.263Z,2.44
2022-12-06T12:47:20.777Z,2.40
2022-12-06T12:50:22.304Z,2.38
2022-12-06T12:52:49.665Z,2.40
2022-12-06T12:55:30.372Z,2.37
2022-12-06T12:58:00.920Z,2.38
2022-12-06T13:00:38.518Z,2.38
2022-12-06T13:03:49.520Z,2.42
2022-12-06T13:06:07.197Z,2.43
2022-12-06T13:08:38.892Z,2.40
2022-12-06T13:11:08.434Z,2.37
2022-12-06T13:13:49.782Z,2.40
2022-12-06T13:16:29.275Z,2.42
2022-12-06T13:18:59.342Z,2.42
2022-12-06T13:21:41.120Z,2.46
2022-12-06T13:24:10.733Z,2.52
2022-12-06T13:26:47.600Z,2.50
2022-12-06T13:29:34.768Z,2.47
2022-12-06T13:32:16.250Z,2.48
2022-12-06T13:35:27.454Z,2.47
2022-12-06T13:38:03.605Z,2.46
2022-12-06T14:14:25.898Z,2.01
2022-12-06T14:17:02.271Z,2.04
2022-12-06T14:19:38.932Z,2.01
2022-12-06T14:22:33.801Z,1.96
2022-12-06T14:25:06.826Z,1.94
2022-12-06T14:27:47.885Z,1.91
2022-12-06T14:30:26.260Z,1.90
2022-12-06T14:32:59.473Z,1.88
2022-12-06T14:35:35.972Z,1.86
2022-12-06T14:38:23.041Z,1.84
2022-12-06T14:41:10.369Z,1.83
2022-12-06T14:43:38.910Z,1.77
2022-12-06T14:46:14.676Z,1.79
2022-12-06T14:49:02.331Z,1.77
2022-12-06T14:51:42.473Z,1.80
2022-12-06T14:54:36.457Z,1.77
2022-12-06T14:57:04.384Z,1.76
2022-12-06T15:00:11.385Z,1.73
2022-12-06T15:02:28.160Z,1.69
2022-12-06T15:04:55.697Z,1.69
2022-12-06T15:07:42.771Z,1.64
2022-12-06T15:10:35.160Z,1.62
2022-12-06T15:13:16.579Z,1.57
2022-12-06T15:16:01.152Z,1.47
2022-12-06T15:18:38.989Z,1.39
2022-12-06T15:21:18.035Z,1.32
2022-12-06T15:23:54.586Z,1.31
2022-12-06T15:26:24.560Z,1.25
2022-12-06T15:28:52.292Z,1.23
2022-12-06T15:31:28.116Z,1.24
2022-12-06T15:33:56.038Z,1.21
2022-12-06T15:36:33.118Z,1.16
2022-12-06T15:38:59.934Z,1.16
2022-12-06T15:41:29.198Z,1.16
2022-12-06T15:43:57.570Z,1.13
2022-12-06T15:46:28.830Z,1.14
2022-12-06T15:48:57.416Z,1.07
2022-12-06T15:51:27.489Z,1.11
2022-12-06T15:53:57.632Z,1.11
2022-12-06T15:56:30.002Z,1.08
2022-12-06T15:58:56.780Z,1.06
2022-12-06T16:01:37.133Z,1.05
2022-12-06T16:04:12.682Z,0.99
2022-12-06T16:06:39.283Z,0.92
2022-12-06T16:09:06.125Z,0.94
2022-12-06T16:11:32.769Z,0.91
2022-12-06T16:13:59.524Z,0.88
2022-12-06T16:16:26.331Z,0.83
2022-12-06T16:18:53.837Z,0.78
2022-12-06T16:21:25.146Z,0.73
2022-12-06T16:24:16.455Z,0.69
2022-12-06T16:26:44.972Z,0.62
2022-12-06T16:29:24.757Z,0.57
2022-12-06T16:31:55.499Z,0.52
2022-12-06T16:34:22.486Z,0.48
2022-12-06T16:37:06.627Z,0.34
2022-12-06T16:39:35.455Z,0.26
2022-12-06T16:42:05.150Z,0.17
2022-12-06T16:44:33.237Z,0.08
2022-12-06T16:47:00.031Z,0.02
2022-12-06T16:49:48.412Z,-0.06
2022-12-06T16:52:16.529Z,-0.12
2022-12-06T16:54:43.662Z,-0.12
2022-12-06T16:57:14.973Z,-0.11
2022-12-06T16:59:43.049Z,-0.14
2022-12-06T17:02:40.656Z,-0.20
2022-12-06T17:05:08.296Z,-0.16
2022-12-06T17:07:36.811Z,-0.21
2022-12-06T17:10:04.792Z,-0.24
2022-12-06T17:12:31.495Z,-0.29
2022-12-06T17:15:00.412Z,-0.34
2022-12-06T17:17:29.266Z,-0.41
2022-12-06T17:19:56.451Z,-0.49
2022-12-06T17:22:23.585Z,-0.57
2022-12-06T17:24:50.386Z,-0.71
2022-12-06T17:27:17.298Z,-0.80
2022-12-06T17:29:45.341Z,-0.91
2022-12-06T17:32:13.689Z,-1.01
2022-12-06T17:34:40.462Z,-1.11
2022-12-06T17:37:07.199Z,-1.21
2022-12-06T17:39:34.262Z,-1.33
2022-12-06T17:42:19.955Z,-1.38
2022-12-06T17:44:52.904Z,-1.45
2022-12-06T17:47:20.014Z,-1.49
2022-12-06T17:49:49.842Z,-1.50
2022-12-06T17:52:16.913Z,-1.44
2022-12-06T17:54:44.268Z,-1.38
2022-12-06T17:57:18.353Z,-1.33
2022-12-06T17:59:48.457Z,-1.35
2022-12-06T18:02:26.776Z,-1.37
2022-12-06T18:04:55.278Z,-1.43
2022-12-06T18:07:22.308Z,-1.50
2022-12-06T18:18:12.293Z,-1.62
2022-12-06T20:12:05.367Z,-0.16
2022-12-06T21:54:38.212Z,-0.24
2022-12-06T21:59:49.179Z,-0.21
2022-12-06T22:02:15.903Z,-0.23
2022-12-06T22:04:46.334Z,-0.26
2022-12-06T22:07:12.974Z,-0.24
2022-12-06T22:09:58.084Z,-0.29
2022-12-06T22:12:25.846Z,-0.29
2022-12-06T22:14:52.758Z,-0.30
2022-12-06T22:17:25.385Z,-0.32
2022-12-06T22:19:52.125Z,-0.28
2022-12-06T22:22:19.663Z,-0.27
2022-12-06T22:24:46.780Z,-0.25
2022-12-06T22:27:13.468Z,-0.27
2022-12-06T22:29:40.184Z,-0.25
2022-12-06T22:32:06.803Z,-0.23
2022-12-06T22:34:33.875Z,-0.24
2022-12-06T22:37:00.706Z,-0.23
2022-12-06T22:39:29.996Z,-0.25
2022-12-06T22:41:56.650Z,-0.23
2022-12-06T22:44:23.804Z,-0.22
2022-12-06T22:46:50.602Z,-0.19
2022-12-06T22:49:20.492Z,-0.21
2022-12-06T22:51:50.918Z,-0.22
2022-12-06T22:54:32.921Z,-0.17
2022-12-06T22:57:01.636Z,-0.16
2022-12-06T22:59:28.430Z,-0.15
2022-12-06T23:01:55.130Z,-0.17
2022-12-06T23:04:21.909Z,-0.15
2022-12-06T23:06:48.815Z,-0.13
2022-12-06T23:09:17.089Z,-0.10
2022-12-06T23:11:44.091Z,-0.13
2022-12-06T23:14:12.169Z,-0.08
2022-12-06T23:16:38.936Z,-0.07
2022-12-06T23:19:05.821Z,-0.05
2022-12-06T23:21:36.498Z,-0.06
2022-12-06T23:24:10.294Z,-0.05
2022-12-06T23:26:53.145Z,-0.02
2022-12-06T23:29:21.358Z,-0.02
2022-12-06T23:31:48.870Z,-0.02
2022-12-06T23:34:26.450Z,0.02
2022-12-06T23:36:53.769Z,0.03
2022-12-06T23:39:20.501Z,0.03
2022-12-06T23:41:47.511Z,0.06
2022-12-06T23:44:14.589Z,0.07
2022-12-06T23:46:44.166Z,-0.02
2022-12-06T23:49:20.308Z,-0.12
2022-12-06T23:51:48.927Z,-0.21
2022-12-06T23:54:18.376Z,-0.23
2022-12-06T23:56:46.063Z,-0.28
2022-12-06T23:59:16.534Z,-0.30
